Terminal Aerodrome Forecast
Issued by NWS

Home | Current Version | Previous Version | Text Only | Print | Product List | Glossary On
Versions: 1 2 3 4 5 6 7 8 9 10 11 12 13 14 15 16 17 18 19 20 21 22 23 24 25 26
000
FTUS43 KSGF 260500
TAFJLN
TAF
KJLN 260520Z 2606/2706 12006KT P6SM VCSH FEW015 SCT050 OVC100
     FM260800 21006KT P6SM BKN015 OVC100
      TEMPO 2610/2613 BKN008
     FM261500 24010KT P6SM FEW025
     FM270000 20006KT P6SM SCT120=

USA.gov is the U.S. government's official web portal to all federal, state and local government web resources and services.